sensor_id;sensor_type;location;lat;lon;timestamp;P1;P2;P0
73832;PMS7003;62179;48.444;-4.464;2024-01-11T18:23:09;41.50;33.50;22.25
73832;PMS7003;62179;48.444;-4.464;2024-01-11T18:25:34;18.50;14.00;8.50
73832;PMS7003;62179;48.444;-4.464;2024-01-11T18:28:02;17.00;13.50;9.75
73832;PMS7003;62179;48.444;-4.464;2024-01-11T18:30:28;10.50;8.75;5.25
73832;PMS7003;62179;48.444;-4.464;2024-01-11T18:32:53;15.00;12.00;8.75
73832;PMS7003;62179;48.444;-4.464;2024-01-11T18:35:19;22.25;12.75;8.75
73832;PMS7003;62179;48.444;-4.464;2024-01-11T18:37:44;15.25;10.25;7.00
73832;PMS7003;62179;48.444;-4.464;2024-01-11T18:40:10;17.25;14.00;8.25
73832;PMS7003;62179;48.444;-4.464;2024-01-11T18:42:35;13.75;12.50;8.00
73832;PMS7003;62179;48.444;-4.464;2024-01-11T18:45:01;15.75;14.25;9.00
73832;PMS7003;62179;48.444;-4.464;2024-01-11T18:47:29;14.50;10.00;7.25
73832;PMS7003;62179;48.444;-4.464;2024-01-11T18:49:59;16.75;12.75;9.50
73832;PMS7003;62179;48.444;-4.464;2024-01-11T18:52:35;16.00;12.00;8.50
73832;PMS7003;62179;48.444;-4.464;2024-01-11T18:55:02;15.00;13.50;9.75
73832;PMS7003;62179;48.444;-4.464;2024-01-11T18:57:27;20.00;16.75;10.00
73832;PMS7003;62179;48.444;-4.464;2024-01-11T18:59:53;19.25;18.00;10.50
73832;PMS7003;62179;48.444;-4.464;2024-01-11T19:02:23;17.50;15.50;9.00
73832;PMS7003;62179;48.444;-4.464;2024-01-11T19:04:48;17.75;13.00;8.50
73832;PMS7003;62179;48.444;-4.464;2024-01-11T19:07:14;17.50;15.75;12.25
73832;PMS7003;62179;48.444;-4.464;2024-01-11T19:09:41;11.50;10.75;8.00
73832;PMS7003;62179;48.444;-4.464;2024-01-11T19:12:07;10.50;8.75;5.50
73832;PMS7003;62179;48.444;-4.464;2024-01-11T19:14:33;15.00;11.00;8.50
73832;PMS7003;62179;48.444;-4.464;2024-01-11T19:17:01;16.25;11.00;7.50
73832;PMS7003;62179;48.444;-4.464;2024-01-11T19:19:30;15.00;10.00;8.00
73832;PMS7003;62179;48.444;-4.464;2024-01-11T19:22:01;13.00;10.25;7.25
73832;PMS7003;62179;48.444;-4.464;2024-01-11T19:24:47;14.75;13.50;8.25
73832;PMS7003;62179;48.444;-4.464;2024-01-11T19:27:13;9.75;9.50;6.50
73832;PMS7003;62179;48.444;-4.464;2024-01-11T19:29:38;14.75;11.25;8.00
73832;PMS7003;62179;48.444;-4.464;2024-01-11T19:32:06;12.25;9.25;7.00
73832;PMS7003;62179;48.444;-4.464;2024-01-11T19:34:32;19.00;11.25;8.00
73832;PMS7003;62179;48.444;-4.464;2024-01-11T19:36:58;17.50;11.25;8.00
73832;PMS7003;62179;48.444;-4.464;2024-01-11T19:39:36;11.25;11.25;8.75
73832;PMS7003;62179;48.444;-4.464;2024-01-11T19:42:02;12.00;10.25;7.25
73832;PMS7003;62179;48.444;-4.464;2024-01-11T19:44:29;13.25;8.75;6.75
73832;PMS7003;62179;48.444;-4.464;2024-01-11T19:46:58;7.75;7.75;3.75
73832;PMS7003;62179;48.444;-4.464;2024-01-11T19:49:27;10.25;10.25;7.75
73832;PMS7003;62179;48.444;-4.464;2024-01-11T19:51:53;14.50;12.50;8.00
73832;PMS7003;62179;48.444;-4.464;2024-01-11T19:54:20;12.75;8.25;5.25
73832;PMS7003;62179;48.444;-4.464;2024-01-11T19:56:45;15.50;15.50;9.00
73832;PMS7003;62179;48.444;-4.464;2024-01-11T19:59:11;8.75;7.75;5.25
73832;PMS7003;62179;48.444;-4.464;2024-01-11T20:01:40;10.25;8.75;6.00
73832;PMS7003;62179;48.444;-4.464;2024-01-11T20:04:05;12.50;9.00;6.25
73832;PMS7003;62179;48.444;-4.464;2024-01-11T20:06:31;7.75;7.50;5.00
73832;PMS7003;62179;48.444;-4.464;2024-01-11T20:08:57;9.00;8.25;4.00
73832;PMS7003;62179;48.444;-4.464;2024-01-11T20:11:27;9.75;9.75;6.25
73832;PMS7003;62179;48.444;-4.464;2024-01-11T20:13:53;9.00;9.00;6.00
73832;PMS7003;62179;48.444;-4.464;2024-01-11T20:16:18;8.75;8.00;6.00
73832;PMS7003;62179;48.444;-4.464;2024-01-11T20:18:44;6.50;4.25;3.75
73832;PMS7003;62179;48.444;-4.464;2024-01-11T20:21:10;7.25;7.25;4.00
73832;PMS7003;62179;48.444;-4.464;2024-01-11T20:23:42;12.75;9.25;6.75
73832;PMS7003;62179;48.444;-4.464;2024-01-11T20:26:11;8.25;8.25;4.25
73832;PMS7003;62179;48.444;-4.464;2024-01-11T20:28:38;9.75;8.00;5.75
73832;PMS7003;62179;48.444;-4.464;2024-01-11T20:31:04;9.00;8.00;4.50
73832;PMS7003;62179;48.444;-4.464;2024-01-11T20:33:35;9.50;9.50;6.50
73832;PMS7003;62179;48.444;-4.464;2024-01-11T20:36:01;11.25;9.75;7.00
73832;PMS7003;62179;48.444;-4.464;2024-01-11T20:38:28;10.00;8.00;3.00
73832;PMS7003;62179;48.444;-4.464;2024-01-11T20:41:01;10.25;8.25;6.25
73832;PMS7003;62179;48.444;-4.464;2024-01-11T20:43:30;7.00;7.00;4.50
73832;PMS7003;62179;48.444;-4.464;2024-01-11T20:45:55;6.75;6.50;4.50
73832;PMS7003;62179;48.444;-4.464;2024-01-11T20:48:21;9.25;8.00;3.00
73832;PMS7003;62179;48.444;-4.464;2024-01-11T20:50:50;6.75;6.50;4.00
73832;PMS7003;62179;48.444;-4.464;2024-01-11T20:53:16;7.25;6.00;3.25
73832;PMS7003;62179;48.444;-4.464;2024-01-11T20:55:42;7.25;6.00;3.50
73832;PMS7003;62179;48.444;-4.464;2024-01-11T20:58:33;10.75;7.00;5.50
73832;PMS7003;62179;48.444;-4.464;2024-01-11T21:01:09;10.75;7.00;5.50
73832;PMS7003;62179;48.444;-4.464;2024-01-11T21:03:40;8.50;7.00;6.00
73832;PMS7003;62179;48.444;-4.464;2024-01-11T21:06:06;7.75;4.75;3.50
73832;PMS7003;62179;48.444;-4.464;2024-01-11T21:09:20;7.50;7.25;3.50
73832;PMS7003;62179;48.444;-4.464;2024-01-11T21:12:08;9.75;6.75;4.50
73832;PMS7003;62179;48.444;-4.464;2024-01-11T21:14:49;10.25;6.00;3.25
73832;PMS7003;62179;48.444;-4.464;2024-01-11T21:17:17;8.50;6.25;3.00
73832;PMS7003;62179;48.444;-4.464;2024-01-11T21:19:51;6.50;5.50;4.00
73832;PMS7003;62179;48.444;-4.464;2024-01-11T21:22:20;6.50;6.50;5.50
